Time;durP1;ratioP1;P1;durP2;ratioP2;P2;SDS_P1;SDS_P2;PMS_P1;PMS_P2;Temp;Humidity;BMP_temperature;BMP_pressure;BME280_temperature;BME280_humidity;BME280_pressure;Samples;Min_cycle;Max_cycle;Signal;HPM_P1;HPM_P2
2020/12/25 00:00:29;;;;;;;7.32;3.83;;;7.00;99.90;;;;;;2121837;27;20092;-75
2020/12/25 00:01:31;;;;;;;5.80;3.70;;;7.00;99.90;;;;;;2121973;27;20570;-76
2020/12/25 00:02:31;;;;;;;5.13;3.63;;;7.00;99.90;;;;;;2112667;28;20027;-78
2020/12/25 00:03:32;;;;;;;5.40;3.60;;;7.00;99.90;;;;;;2112405;28;20668;-76
2020/12/25 00:04:33;;;;;;;6.43;3.83;;;7.00;99.90;;;;;;2103993;28;20040;-77
2020/12/25 00:05:34;;;;;;;4.60;3.30;;;7.00;99.90;;;;;;2104296;28;20020;-76
2020/12/25 00:06:37;;;;;;;7.63;3.70;;;7.00;99.90;;;;;;2121677;27;20034;-75
2020/12/25 00:07:38;;;;;;;4.47;3.85;;;7.00;99.90;;;;;;2112649;28;20407;-76
2020/12/25 00:08:39;;;;;;;6.80;3.50;;;7.00;99.90;;;;;;2112731;28;20019;-77
2020/12/25 00:09:39;;;;;;;3.83;3.47;;;7.00;99.90;;;;;;2112001;28;20643;-75
2020/12/25 00:10:42;;;;;;;5.30;3.70;;;6.90;99.90;;;;;;2112801;28;20106;-76
2020/12/25 00:11:43;;;;;;;4.82;3.88;;;7.00;99.90;;;;;;2111841;28;20017;-76
2020/12/25 00:12:44;;;;;;;10.38;4.70;;;6.90;99.90;;;;;;2104065;28;20023;-77
2020/12/25 00:13:46;;;;;;;8.23;4.00;;;6.90;99.90;;;;;;2103850;28;20476;-77
2020/12/25 00:14:46;;;;;;;7.45;3.15;;;7.00;99.90;;;;;;2112827;28;20401;-75
2020/12/25 00:15:47;;;;;;;5.30;3.80;;;6.90;99.90;;;;;;2121855;27;20076;-75
2020/12/25 00:16:47;;;;;;;8.23;3.60;;;6.90;99.90;;;;;;2121750;27;20023;-77
2020/12/25 00:17:48;;;;;;;6.90;3.85;;;6.90;99.90;;;;;;2121563;27;20024;-77
2020/12/25 00:18:48;;;;;;;4.45;3.25;;;6.90;99.90;;;;;;2122171;27;20019;-77
2020/12/25 00:19:49;;;;;;;4.80;3.22;;;6.90;99.90;;;;;;2121642;28;20464;-75
2020/12/25 00:20:50;;;;;;;5.65;3.42;;;6.90;99.90;;;;;;2121775;27;20079;-76
2020/12/25 00:21:51;;;;;;;4.65;3.53;;;6.90;99.90;;;;;;2112544;28;20111;-75
2020/12/25 00:22:51;;;;;;;7.60;3.70;;;6.90;99.90;;;;;;2103215;28;20024;-77
2020/12/25 00:23:52;;;;;;;9.00;3.90;;;6.90;99.90;;;;;;2112262;28;20368;-76
2020/12/25 00:24:53;;;;;;;4.45;3.70;;;6.90;99.90;;;;;;2112401;28;20129;-78
2020/12/25 00:25:53;;;;;;;7.47;3.70;;;7.00;99.90;;;;;;2112420;28;20024;-76
2020/12/25 00:26:54;;;;;;;6.88;3.97;;;6.90;99.90;;;;;;2121924;28;20026;-77
2020/12/25 00:27:54;;;;;;;6.18;3.80;;;6.90;99.90;;;;;;2121400;28;20047;-76
2020/12/25 00:28:57;;;;;;;6.15;3.63;;;6.90;99.90;;;;;;2121394;28;20494;-77
2020/12/25 00:29:58;;;;;;;6.75;3.88;;;6.90;99.90;;;;;;2121432;28;20467;-76
2020/12/25 00:30:58;;;;;;;8.48;4.00;;;6.90;99.90;;;;;;2121740;28;20107;-76
2020/12/25 00:31:59;;;;;;;6.18;3.80;;;6.90;99.90;;;;;;2121709;28;20023;-77
2020/12/25 00:33:00;;;;;;;5.30;3.85;;;6.90;99.90;;;;;;2121474;28;20015;-77
2020/12/25 00:34:03;;;;;;;4.82;3.75;;;6.90;99.90;;;;;;2121428;28;20015;-77
2020/12/25 00:35:03;;;;;;;9.15;4.75;;;6.90;99.90;;;;;;2121718;28;20022;-77
2020/12/25 00:36:04;;;;;;;6.00;3.50;;;6.90;99.90;;;;;;2112688;28;20386;-77
2020/12/25 00:37:04;;;;;;;7.28;3.83;;;6.90;99.90;;;;;;2103900;28;20020;-74
2020/12/25 00:38:05;;;;;;;6.25;3.55;;;6.80;99.90;;;;;;2112773;28;20491;-77
2020/12/25 00:39:09;;;;;;;7.88;3.80;;;6.90;99.90;;;;;;2121841;28;20155;-77
2020/12/25 00:40:09;;;;;;;6.25;3.65;;;6.80;99.90;;;;;;2112207;28;20032;-78
2020/12/25 00:41:10;;;;;;;5.95;3.72;;;6.80;99.90;;;;;;2112361;28;20099;-75
2020/12/25 00:42:11;;;;;;;6.22;3.70;;;6.80;99.90;;;;;;2121899;28;20035;-76
2020/12/25 00:43:11;;;;;;;6.03;3.70;;;6.80;99.90;;;;;;2121529;28;20027;-77
2020/12/25 00:44:13;;;;;;;5.32;4.28;;;6.80;99.90;;;;;;2121828;28;20503;-77
2020/12/25 00:45:13;;;;;;;8.00;3.90;;;6.80;99.90;;;;;;2120796;28;20077;-77
2020/12/25 00:46:15;;;;;;;9.98;3.95;;;6.80;99.90;;;;;;2112053;28;20046;-76
2020/12/25 00:47:15;;;;;;;7.97;4.10;;;6.80;99.90;;;;;;2112393;28;20027;-77
2020/12/25 00:48:16;;;;;;;6.38;3.92;;;6.80;99.90;;;;;;2121423;28;20034;-77
2020/12/25 00:49:17;;;;;;;7.60;3.25;;;6.70;99.90;;;;;;2121478;28;20102;-76
2020/12/25 00:50:17;;;;;;;6.15;4.22;;;6.70;99.90;;;;;;2121071;28;20027;-78
2020/12/25 00:51:19;;;;;;;5.60;3.67;;;6.70;99.90;;;;;;2121320;28;20023;-76
2020/12/25 00:52:23;;;;;;;6.57;3.38;;;6.70;99.90;;;;;;2121500;28;20035;-75
2020/12/25 00:53:24;;;;;;;7.55;3.38;;;6.70;99.90;;;;;;2121210;28;20379;-76
2020/12/25 00:54:25;;;;;;;5.55;3.42;;;6.70;99.90;;;;;;2112497;28;20016;-75
2020/12/25 00:55:25;;;;;;;5.75;3.97;;;6.70;99.90;;;;;;2112201;28;20024;-76
2020/12/25 00:56:26;;;;;;;5.55;3.55;;;6.70;99.90;;;;;;2111669;28;20689;-77
2020/12/25 00:57:27;;;;;;;6.43;3.97;;;6.70;99.90;;;;;;2111733;28;20023;-75
2020/12/25 00:58:27;;;;;;;5.63;3.85;;;6.70;99.90;;;;;;2121868;28;20030;-77
2020/12/25 00:59:28;;;;;;;5.82;3.47;;;6.70;99.90;;;;;;2112369;28;20379;-74
2020/12/25 01:00:28;;;;;;;5.55;3.67;;;6.60;99.90;;;;;;2104251;28;20410;-74
2020/12/25 01:01:29;;;;;;;7.88;3.70;;;6.70;99.90;;;;;;2103788;28;20016;-77
2020/12/25 01:02:30;;;;;;;7.25;3.63;;;6.60;99.90;;;;;;2103656;28;20020;-74
2020/12/25 01:03:32;;;;;;;8.02;3.80;;;6.60;99.90;;;;;;2112193;28;20107;-77
2020/12/25 01:04:33;;;;;;;8.15;4.30;;;6.60;99.90;;;;;;2121645;28;20026;-77
2020/12/25 01:05:33;;;;;;;5.03;3.22;;;6.60;99.90;;;;;;2121516;28;20588;-74
2020/12/25 01:06:34;;;;;;;5.20;3.05;;;6.60;99.90;;;;;;2112429;28;20024;-77
2020/12/25 01:07:35;;;;;;;4.82;3.45;;;6.60;99.90;;;;;;2112400;28;20024;-76
2020/12/25 01:08:35;;;;;;;8.15;4.45;;;6.60;99.90;;;;;;2121410;28;20031;-74
2020/12/25 01:09:36;;;;;;;7.00;4.03;;;6.60;99.90;;;;;;2121514;28;20504;-76
2020/12/25 01:10:36;;;;;;;7.53;3.50;;;6.60;99.90;;;;;;2112598;28;20404;-75
2020/12/25 01:11:37;;;;;;;5.78;3.05;;;6.60;99.90;;;;;;2103844;28;20035;-76
2020/12/25 01:12:37;;;;;;;5.70;3.65;;;6.60;99.90;;;;;;2103848;28;20024;-77
2020/12/25 01:13:43;;;;;;;8.18;3.92;;;6.60;99.90;;;;;;2111837;28;20019;-75
2020/12/25 01:14:43;;;;;;;8.18;4.15;;;6.60;99.90;;;;;;2121504;28;20023;-78
2020/12/25 01:15:44;;;;;;;7.35;3.67;;;6.60;99.90;;;;;;2121422;28;20054;-77
2020/12/25 01:16:45;;;;;;;9.82;4.18;;;6.60;99.90;;;;;;2112600;28;20027;-75
2020/12/25 01:17:45;;;;;;;5.63;3.60;;;6.60;99.90;;;;;;2112422;28;20047;-75
2020/12/25 01:18:47;;;;;;;7.05;3.40;;;6.60;99.90;;;;;;2121353;28;20027;-76
2020/12/25 01:19:47;;;;;;;5.68;3.50;;;6.60;99.90;;;;;;2121339;28;20029;-75
2020/12/25 01:20:48;;;;;;;6.60;3.80;;;6.60;99.90;;;;;;2121563;28;20030;-75
2020/12/25 01:21:48;;;;;;;8.10;3.80;;;6.60;99.90;;;;;;2121634;28;20028;-76
2020/12/25 01:22:49;;;;;;;9.60;3.65;;;6.60;99.90;;;;;;2112123;28;20023;-76
2020/12/25 01:23:50;;;;;;;4.85;3.35;;;6.60;99.90;;;;;;2113587;28;20051;-75
2020/12/25 01:24:50;;;;;;;7.75;4.07;;;6.60;99.90;;;;;;2122783;27;20092;-76
2020/12/25 01:25:51;;;;;;;4.47;3.40;;;6.60;99.90;;;;;;2123111;27;20057;-76
2020/12/25 01:26:52;;;;;;;4.57;3.38;;;6.60;99.90;;;;;;2113802;28;20027;-76
2020/12/25 01:27:52;;;;;;;7.30;3.83;;;6.60;99.90;;;;;;2113940;28;20379;-77
2020/12/25 01:29:02;;;;;;;6.85;3.33;;;6.60;99.90;;;;;;2123120;27;20022;-76
2020/12/25 01:30:03;;;;;;;7.38;3.35;;;6.50;99.90;;;;;;2123252;27;20088;-75
2020/12/25 01:31:04;;;;;;;9.48;3.72;;;6.50;99.90;;;;;;2122729;27;20015;-77
2020/12/25 01:32:05;;;;;;;6.45;3.08;;;6.50;99.90;;;;;;2114059;28;20023;-77
2020/12/25 01:33:06;;;;;;;6.72;3.60;;;6.50;99.90;;;;;;2113481;28;20137;-76
2020/12/25 01:34:06;;;;;;;5.95;3.03;;;6.50;99.90;;;;;;2123202;27;20490;-75
2020/12/25 01:35:07;;;;;;;5.13;3.30;;;6.50;99.90;;;;;;2123009;27;20043;-74
2020/12/25 01:36:07;;;;;;;5.82;3.47;;;6.50;99.90;;;;;;2122653;27;20022;-78
2020/12/25 01:37:08;;;;;;;5.80;2.78;;;6.50;99.90;;;;;;2122807;27;20027;-75
2020/12/25 01:38:09;;;;;;;4.88;2.70;;;6.50;99.90;;;;;;2123055;27;20031;-76
2020/12/25 01:39:10;;;;;;;5.75;3.33;;;6.50;99.90;;;;;;2122856;27;20023;-75
2020/12/25 01:40:11;;;;;;;5.60;2.95;;;6.50;99.90;;;;;;2123004;27;20038;-75
2020/12/25 01:41:11;;;;;;;7.00;3.25;;;6.50;99.90;;;;;;2123145;27;20027;-76
2020/12/25 01:42:12;;;;;;;5.97;2.75;;;6.50;99.90;;;;;;2122547;27;20019;-78
2020/12/25 01:43:12;;;;;;;6.90;3.55;;;6.50;99.90;;;;;;2122580;27;20015;-76
2020/12/25 01:44:13;;;;;;;9.68;3.10;;;6.40;99.90;;;;;;2113807;28;20035;-76
2020/12/25 01:45:13;;;;;;;4.35;2.60;;;6.40;99.90;;;;;;2113789;28;20024;-76
2020/12/25 01:46:15;;;;;;;7.20;2.75;;;6.40;99.90;;;;;;2123001;27;20100;-75
2020/12/25 01:47:17;;;;;;;6.40;3.03;;;6.40;99.90;;;;;;2122130;27;20098;-75
2020/12/25 01:48:17;;;;;;;5.65;2.65;;;6.40;99.90;;;;;;2113862;28;20022;-77
2020/12/25 01:49:18;;;;;;;5.07;2.10;;;6.30;99.90;;;;;;2113924;27;20140;-75
2020/12/25 01:50:20;;;;;;;4.93;3.00;;;6.30;99.90;;;;;;2122679;27;20023;-77
2020/12/25 01:51:21;;;;;;;8.18;2.97;;;6.30;99.90;;;;;;2122839;27;20072;-77
2020/12/25 01:52:23;;;;;;;7.50;3.70;;;6.30;99.90;;;;;;2122923;27;20489;-76
2020/12/25 01:53:23;;;;;;;3.00;2.30;;;6.30;99.90;;;;;;2112907;28;20019;-74
2020/12/25 01:54:24;;;;;;;5.50;2.58;;;6.30;99.90;;;;;;2113811;28;20694;-76
2020/12/25 01:55:31;;;;;;;7.68;2.70;;;6.30;99.90;;;;;;2122932;27;20464;-77
2020/12/25 01:56:31;;;;;;;5.68;2.33;;;6.30;99.90;;;;;;2113721;28;20511;-75
2020/12/25 01:57:32;;;;;;;5.35;2.38;;;6.30;99.90;;;;;;2105053;28;20027;-74
2020/12/25 01:58:33;;;;;;;4.03;2.30;;;6.20;99.90;;;;;;2104816;28;20111;-76
2020/12/25 01:59:34;;;;;;;6.75;2.50;;;6.30;99.90;;;;;;2113294;28;20105;-77
2020/12/25 02:00:35;;;;;;;7.05;2.92;;;6.20;99.90;;;;;;2122824;27;20463;-76
2020/12/25 02:01:37;;;;;;;8.95;2.40;;;6.30;99.90;;;;;;2122228;27;20022;-77
2020/12/25 02:02:37;;;;;;;5.43;2.40;;;6.30;99.90;;;;;;2122806;27;20038;-76
2020/12/25 02:03:38;;;;;;;6.68;2.58;;;6.30;99.90;;;;;;2113188;28;20098;-75
2020/12/25 02:04:39;;;;;;;6.07;2.30;;;6.30;99.90;;;;;;2113526;28;20016;-75
2020/12/25 02:05:40;;;;;;;7.30;2.47;;;6.20;99.90;;;;;;2122428;27;20137;-75
2020/12/25 02:06:40;;;;;;;3.28;2.38;;;6.30;99.90;;;;;;2113682;28;20015;-77
2020/12/25 02:07:42;;;;;;;4.82;2.08;;;6.30;99.90;;;;;;2113662;28;20099;-75
2020/12/25 02:08:42;;;;;;;4.35;2.40;;;6.20;99.90;;;;;;2122856;27;20083;-78
2020/12/25 02:09:43;;;;;;;9.45;2.42;;;6.20;99.90;;;;;;2113451;28;20168;-76
2020/12/25 02:10:43;;;;;;;3.45;2.30;;;6.20;99.90;;;;;;2105114;28;20047;-77
2020/12/25 02:11:44;;;;;;;6.07;2.40;;;6.30;99.90;;;;;;2105255;28;20036;-77
2020/12/25 02:12:45;;;;;;;7.55;3.13;;;6.30;99.90;;;;;;2113423;28;20027;-74
2020/12/25 02:13:46;;;;;;;7.75;2.65;;;6.30;99.90;;;;;;2112886;28;20027;-77
2020/12/25 02:14:46;;;;;;;7.30;2.50;;;6.30;99.90;;;;;;2113588;28;20028;-76
2020/12/25 02:15:47;;;;;;;10.65;2.33;;;6.30;99.90;;;;;;2122587;27;20030;-74
2020/12/25 02:16:47;;;;;;;8.27;2.95;;;6.30;99.90;;;;;;2113658;28;20133;-77
2020/12/25 02:17:49;;;;;;;7.75;2.28;;;6.20;99.90;;;;;;2109742;28;20442;-79
2020/12/25 02:18:49;;;;;;;6.03;2.20;;;6.20;99.90;;;;;;2113650;28;20030;-75
2020/12/25 02:19:50;;;;;;;7.90;2.30;;;6.20;99.90;;;;;;2113625;28;20034;-74
2020/12/25 02:20:51;;;;;;;4.75;2.30;;;6.20;99.90;;;;;;2113227;28;20578;-74
2020/12/25 02:21:52;;;;;;;4.60;2.15;;;6.20;99.90;;;;;;2104982;28;20043;-77
2020/12/25 02:22:52;;;;;;;4.55;2.03;;;6.20;99.90;;;;;;2113701;28;20043;-78
2020/12/25 02:23:53;;;;;;;7.85;2.42;;;6.20;99.90;;;;;;2122204;27;20386;-75
2020/12/25 02:24:53;;;;;;;4.40;1.95;;;6.20;99.90;;;;;;2122680;27;20030;-77
2020/12/25 02:25:54;;;;;;;6.45;2.33;;;6.20;99.90;;;;;;2113435;28;20046;-77
2020/12/25 02:26:54;;;;;;;6.88;2.28;;;6.20;99.90;;;;;;2104715;28;20539;-78
2020/12/25 02:27:55;;;;;;;8.38;2.60;;;6.20;99.90;;;;;;2113318;28;20028;-75
2020/12/25 02:28:56;;;;;;;6.75;2.35;;;6.20;99.90;;;;;;2113670;28;20486;-75
2020/12/25 02:29:57;;;;;;;9.05;2.47;;;6.20;99.90;;;;;;2122618;27;20392;-75
2020/12/25 02:30:57;;;;;;;6.03;2.20;;;6.20;99.90;;;;;;2122640;27;20072;-75
2020/12/25 02:31:58;;;;;;;6.63;2.50;;;6.20;99.90;;;;;;2122462;27;20015;-78
2020/12/25 02:32:59;;;;;;;9.65;2.40;;;6.20;99.90;;;;;;2122148;27;20064;-77
2020/12/25 02:33:59;;;;;;;5.22;2.13;;;6.20;99.90;;;;;;2122559;27;20016;-77
2020/12/25 02:35:00;;;;;;;6.55;2.33;;;6.20;99.90;;;;;;2121697;27;20027;-74
2020/12/25 02:36:00;;;;;;;6.32;2.03;;;6.20;99.90;;;;;;2122643;27;20053;-75
2020/12/25 02:37:01;;;;;;;10.55;2.95;;;6.20;99.90;;;;;;2122372;27;20027;-76
2020/12/25 02:38:01;;;;;;;4.80;2.25;;;6.20;99.90;;;;;;2122062;27;20098;-76
2020/12/25 02:39:04;;;;;;;7.38;2.08;;;6.20;99.90;;;;;;2122461;27;20018;-75
2020/12/25 02:40:05;;;;;;;6.32;2.20;;;6.20;99.90;;;;;;2122367;27;20039;-75
2020/12/25 02:41:06;;;;;;;7.15;2.22;;;6.20;99.90;;;;;;2122468;27;20034;-75
2020/12/25 02:42:11;;;;;;;5.30;2.15;;;6.20;99.90;;;;;;2113188;28;20404;-76
2020/12/25 02:43:11;;;;;;;6.65;2.10;;;6.20;99.90;;;;;;2113560;27;20030;-77
2020/12/25 02:44:12;;;;;;;6.20;2.10;;;6.20;99.90;;;;;;2112999;28;20524;-76
2020/12/25 02:45:12;;;;;;;7.00;2.30;;;6.10;99.90;;;;;;2104952;28;20066;-77
2020/12/25 02:46:13;;;;;;;6.75;2.20;;;6.10;99.90;;;;;;2104910;28;20020;-77
2020/12/25 02:47:14;;;;;;;7.78;2.55;;;6.10;99.90;;;;;;2104737;28;20020;-76
2020/12/25 02:48:14;;;;;;;9.05;2.20;;;6.10;99.90;;;;;;2104817;28;20078;-75
2020/12/25 02:49:15;;;;;;;4.80;1.73;;;6.10;99.90;;;;;;2113085;28;20026;-75
2020/12/25 02:50:15;;;;;;;7.72;2.28;;;6.10;99.90;;;;;;2122386;27;20033;-76
2020/12/25 02:51:17;;;;;;;8.45;1.83;;;6.10;99.90;;;;;;2113114;28;20034;-77
2020/12/25 02:52:18;;;;;;;13.07;2.38;;;6.10;99.90;;;;;;2113475;28;20012;-78
2020/12/25 02:53:19;;;;;;;6.60;1.83;;;6.20;99.90;;;;;;2121833;27;20463;-77
2020/12/25 02:54:19;;;;;;;6.10;1.92;;;6.10;99.90;;;;;;2122465;27;20617;-74
2020/12/25 02:55:20;;;;;;;9.75;1.98;;;6.20;99.90;;;;;;2121926;27;20015;-77
2020/12/25 02:56:20;;;;;;;4.25;2.00;;;6.20;99.90;;;;;;2122570;27;20590;-76
2020/12/25 02:57:21;;;;;;;5.50;2.20;;;6.20;99.90;;;;;;2113068;28;20076;-75
2020/12/25 02:58:22;;;;;;;8.52;1.98;;;6.10;99.90;;;;;;2113388;28;20031;-76
2020/12/25 02:59:23;;;;;;;8.45;2.65;;;6.10;99.90;;;;;;2122388;27;20542;-77
2020/12/25 03:00:23;;;;;;;6.53;2.28;;;6.10;99.90;;;;;;2122135;27;20023;-76
2020/12/25 03:01:24;;;;;;;11.10;2.50;;;6.20;99.90;;;;;;2122818;27;20108;-78
2020/12/25 03:02:24;;;;;;;13.10;2.47;;;6.20;99.90;;;;;;2113870;28;20054;-75
2020/12/25 03:03:25;;;;;;;7.38;2.22;;;6.20;99.90;;;;;;2104901;28;20384;-76
2020/12/25 03:04:25;;;;;;;7.75;2.00;;;6.20;99.90;;;;;;2113905;28;20024;-77
2020/12/25 03:05:26;;;;;;;6.85;2.53;;;6.10;99.90;;;;;;2113633;28;20213;-75
2020/12/25 03:06:26;;;;;;;4.05;1.83;;;6.10;99.90;;;;;;2105277;28;20043;-77
2020/12/25 03:07:27;;;;;;;15.02;2.45;;;6.10;99.90;;;;;;2113835;28;20024;-75
2020/12/25 03:08:28;;;;;;;10.38;1.80;;;6.10;99.90;;;;;;2123092;27;20023;-77
2020/12/25 03:09:28;;;;;;;5.68;1.90;;;6.10;99.90;;;;;;2122933;27;20050;-75
2020/12/25 03:10:29;;;;;;;7.00;1.92;;;6.10;99.90;;;;;;2122855;27;20383;-74
2020/12/25 03:11:29;;;;;;;7.57;2.65;;;6.10;99.90;;;;;;2122922;27;20026;-75
2020/12/25 03:12:30;;;;;;;4.20;1.67;;;6.10;99.90;;;;;;2122690;27;20023;-75
2020/12/25 03:13:31;;;;;;;8.40;2.17;;;6.10;99.90;;;;;;2113263;28;20065;-78
2020/12/25 03:14:31;;;;;;;3.22;1.60;;;6.10;99.90;;;;;;2113323;28;20104;-77
2020/12/25 03:15:32;;;;;;;4.68;2.22;;;6.10;99.90;;;;;;2122847;27;20490;-74
2020/12/25 03:16:32;;;;;;;7.30;2.17;;;6.10;99.90;;;;;;2122960;27;20067;-77
2020/12/25 03:17:33;;;;;;;5.47;1.70;;;6.10;99.90;;;;;;2113436;28;20024;-77
2020/12/25 03:18:33;;;;;;;7.57;2.00;;;6.10;99.90;;;;;;2113793;28;20023;-77
2020/12/25 03:19:34;;;;;;;5.35;1.88;;;6.10;99.90;;;;;;2122951;27;20012;-76
2020/12/25 03:20:34;;;;;;;6.70;2.50;;;6.10;99.90;;;;;;2122959;27;20027;-75
2020/12/25 03:21:35;;;;;;;6.97;2.25;;;6.10;99.90;;;;;;2113729;28;20049;-75
2020/12/25 03:22:36;;;;;;;4.90;1.70;;;6.10;99.90;;;;;;2105323;28;20020;-75
2020/12/25 03:23:36;;;;;;;5.60;1.80;;;6.10;99.90;;;;;;2113102;28;20120;-77
2020/12/25 03:24:37;;;;;;;8.80;2.13;;;6.10;99.90;;;;;;2105290;28;20024;-75
2020/12/25 03:25:38;;;;;;;9.02;1.92;;;6.10;99.90;;;;;;2113736;28;20027;-74
2020/12/25 03:26:38;;;;;;;7.13;2.47;;;6.10;99.90;;;;;;2122595;27;20106;-76
2020/12/25 03:27:39;;;;;;;5.47;1.85;;;6.10;99.90;;;;;;2113620;28;20021;-78
2020/12/25 03:28:39;;;;;;;8.45;2.10;;;6.10;99.90;;;;;;2105055;28;20024;-76
2020/12/25 03:29:40;;;;;;;8.00;2.13;;;6.10;99.90;;;;;;2113500;28;20049;-75
2020/12/25 03:30:40;;;;;;;9.13;1.98;;;6.10;99.90;;;;;;2122760;27;20475;-76
2020/12/25 03:31:41;;;;;;;6.68;1.70;;;6.00;99.90;;;;;;2122788;27;20110;-76
2020/12/25 03:32:41;;;;;;;9.20;2.10;;;6.00;99.90;;;;;;2122650;27;20026;-75
2020/12/25 03:33:42;;;;;;;8.88;2.20;;;6.00;99.90;;;;;;2122274;27;20024;-76
2020/12/25 03:34:43;;;;;;;7.63;1.73;;;6.00;99.90;;;;;;2122255;27;20027;-75
2020/12/25 03:35:44;;;;;;;7.45;2.35;;;5.90;99.90;;;;;;2122778;27;20052;-76
2020/12/25 03:36:44;;;;;;;6.75;1.60;;;5.90;99.90;;;;;;2113602;28;20032;-76
2020/12/25 03:37:45;;;;;;;7.68;1.77;;;5.90;99.90;;;;;;2113438;28;20023;-76
2020/12/25 03:38:45;;;;;;;17.90;4.50;;;5.90;99.90;;;;;;2122575;27;20034;-77
2020/12/25 03:39:46;;;;;;;2.60;1.80;;;5.90;99.90;;;;;;2113255;28;20027;-75
2020/12/25 03:40:47;;;;;;;5.32;1.73;;;5.90;99.90;;;;;;2104875;28;20028;-77
2020/12/25 03:41:47;;;;;;;8.85;2.10;;;5.80;99.90;;;;;;2113490;28;20551;-76
2020/12/25 03:42:49;;;;;;;9.70;3.33;;;5.80;99.90;;;;;;2122069;27;20424;-74
2020/12/25 03:43:49;;;;;;;6.47;2.00;;;5.80;99.90;;;;;;2122192;27;20390;-77
2020/12/25 03:44:54;;;;;;;7.10;2.03;;;5.80;99.90;;;;;;2122608;27;20023;-76
2020/12/25 03:45:55;;;;;;;11.85;1.95;;;5.80;99.90;;;;;;2112987;28;20080;-75
2020/12/25 03:46:55;;;;;;;6.80;2.00;;;5.70;99.90;;;;;;2113536;28;20095;-78
2020/12/25 03:48:00;;;;;;;12.65;2.20;;;5.70;99.90;;;;;;2122073;27;20098;-76
2020/12/25 03:49:05;;;;;;;8.63;2.22;;;5.70;99.90;;;;;;2122311;27;20030;-75
2020/12/25 03:50:06;;;;;;;10.95;2.13;;;5.70;99.90;;;;;;2122980;27;20011;-74
2020/12/25 03:51:06;;;;;;;7.65;2.30;;;5.70;99.90;;;;;;2113395;28;20388;-75
2020/12/25 03:52:07;;;;;;;6.20;2.05;;;5.70;99.90;;;;;;2104514;28;20020;-74
2020/12/25 03:53:07;;;;;;;13.13;1.63;;;5.70;99.90;;;;;;2113225;28;20020;-75
2020/12/25 03:54:08;;;;;;;5.68;1.55;;;5.60;99.90;;;;;;2122600;27;20061;-75
2020/12/25 03:55:09;;;;;;;8.90;1.45;;;5.60;99.90;;;;;;2122570;27;20064;-76
2020/12/25 03:56:09;;;;;;;5.55;2.08;;;5.60;99.90;;;;;;2122419;27;20463;-78
2020/12/25 03:57:10;;;;;;;6.93;1.92;;;5.60;99.90;;;;;;2122251;27;20027;-75
2020/12/25 03:58:10;;;;;;;5.13;2.10;;;5.60;99.90;;;;;;2122356;27;20089;-76
2020/12/25 03:59:11;;;;;;;11.93;2.53;;;5.60;99.90;;;;;;2122732;27;20023;-78
2020/12/25 04:00:11;;;;;;;7.20;1.88;;;5.60;99.90;;;;;;2122444;27;20475;-77
2020/12/25 04:01:12;;;;;;;10.13;2.55;;;5.50;99.90;;;;;;2122499;27;20382;-76
2020/12/25 04:02:12;;;;;;;9.52;2.25;;;5.50;99.90;;;;;;2121790;27;20102;-74
2020/12/25 04:03:13;;;;;;;7.68;1.90;;;5.50;99.90;;;;;;2121315;27;20029;-75
2020/12/25 04:04:14;;;;;;;6.75;2.10;;;5.50;99.90;;;;;;2122055;27;20019;-78
2020/12/25 04:05:15;;;;;;;4.13;1.42;;;5.50;99.90;;;;;;2122057;27;20019;-77
2020/12/25 04:06:15;;;;;;;5.72;1.63;;;5.50;99.90;;;;;;2121955;27;20023;-76
2020/12/25 04:07:16;;;;;;;9.80;1.92;;;5.50;99.90;;;;;;2122014;27;20019;-74
2020/12/25 04:08:17;;;;;;;6.53;1.83;;;5.50;99.90;;;;;;2121927;27;20573;-76
2020/12/25 04:09:17;;;;;;;7.65;2.15;;;5.50;99.90;;;;;;2112906;28;20034;-75
2020/12/25 04:10:18;;;;;;;6.10;2.10;;;5.50;99.90;;;;;;2112592;28;20023;-76
2020/12/25 04:11:19;;;;;;;3.80;1.48;;;5.50;99.90;;;;;;2121558;27;20020;-75
2020/12/25 04:12:19;;;;;;;2.88;1.38;;;5.50;99.90;;;;;;2121620;27;20650;-77
2020/12/25 04:13:21;;;;;;;5.55;1.80;;;5.40;99.90;;;;;;2121548;27;20054;-75
2020/12/25 04:14:22;;;;;;;10.25;1.83;;;5.40;99.90;;;;;;2121529;27;20015;-74
2020/12/25 04:15:22;;;;;;;4.10;1.50;;;5.40;99.90;;;;;;2121776;27;20058;-74
2020/12/25 04:16:23;;;;;;;4.95;1.77;;;5.40;99.90;;;;;;2121937;27;20071;-76
2020/12/25 04:17:23;;;;;;;6.50;1.75;;;5.30;99.90;;;;;;2112324;28;20055;-76
2020/12/25 04:18:24;;;;;;;4.85;1.60;;;5.30;99.90;;;;;;2112612;28;20023;-77
2020/12/25 04:19:25;;;;;;;8.00;2.50;;;5.30;99.90;;;;;;2112308;28;20024;-75
2020/12/25 04:20:25;;;;;;;7.65;2.28;;;5.30;99.90;;;;;;2112616;28;20482;-76
2020/12/25 04:21:26;;;;;;;4.03;1.83;;;5.30;99.90;;;;;;2103838;28;20499;-77
2020/12/25 04:22:26;;;;;;;7.30;2.17;;;5.30;99.90;;;;;;2104273;28;20024;-74
2020/12/25 04:23:30;;;;;;;8.48;2.10;;;5.30;99.90;;;;;;2112398;28;20514;-76
2020/12/25 04:24:30;;;;;;;10.63;2.05;;;5.20;99.90;;;;;;2121757;27;20094;-76
2020/12/25 04:25:31;;;;;;;5.63;1.95;;;5.30;99.90;;;;;;2121475;27;20030;-77
2020/12/25 04:26:31;;;;;;;7.72;1.80;;;5.20;99.90;;;;;;2112660;28;20135;-76
2020/12/25 04:27:32;;;;;;;6.88;2.30;;;5.20;99.90;;;;;;2103815;28;20077;-77
2020/12/25 04:28:32;;;;;;;7.15;2.05;;;5.20;99.90;;;;;;2112852;28;20020;-75
2020/12/25 04:29:33;;;;;;;7.55;1.95;;;5.20;99.90;;;;;;2112719;28;20104;-76
2020/12/25 04:30:34;;;;;;;8.65;2.53;;;5.20;99.90;;;;;;2112783;28;20020;-74
2020/12/25 04:31:34;;;;;;;6.70;2.00;;;5.20;99.90;;;;;;2112531;28;20028;-77
2020/12/25 04:32:35;;;;;;;7.72;2.05;;;5.20;99.90;;;;;;2112468;28;20031;-77
2020/12/25 04:33:35;;;;;;;7.60;2.13;;;5.10;99.90;;;;;;2112352;28;20023;-75
2020/12/25 04:34:36;;;;;;;6.22;2.20;;;5.10;99.90;;;;;;2121741;28;20047;-75
2020/12/25 04:35:37;;;;;;;7.45;1.80;;;5.10;99.90;;;;;;2121475;28;20027;-74
2020/12/25 04:36:37;;;;;;;9.02;2.28;;;5.10;99.90;;;;;;2121977;28;20120;-76
2020/12/25 04:37:38;;;;;;;7.72;1.67;;;5.10;99.90;;;;;;2121515;28;20027;-77
2020/12/25 04:38:38;;;;;;;7.72;2.20;;;5.10;99.90;;;;;;2121360;28;20502;-78
2020/12/25 04:39:39;;;;;;;9.23;2.00;;;5.00;99.90;;;;;;2112353;28;20383;-77
2020/12/25 04:40:43;;;;;;;5.45;2.08;;;5.00;99.90;;;;;;2112771;28;20012;-75
2020/12/25 04:41:43;;;;;;;6.35;2.03;;;5.00;99.90;;;;;;2121724;28;20019;-74
2020/12/25 04:42:50;;;;;;;7.65;1.85;;;5.00;99.90;;;;;;2112163;28;20116;-74
2020/12/25 04:43:53;;;;;;;8.82;2.53;;;5.00;99.90;;;;;;2113148;28;20023;-75
2020/12/25 04:44:54;;;;;;;11.85;2.40;;;5.00;99.90;;;;;;2121752;28;20487;-75
2020/12/25 04:45:54;;;;;;;10.40;1.63;;;4.90;99.90;;;;;;2112315;28;20070;-76
2020/12/25 04:47:06;;;;;;;9.45;2.13;;;5.00;99.90;;;;;;2104125;28;20054;-74
2020/12/25 04:48:07;;;;;;;7.85;1.80;;;4.90;99.90;;;;;;2113903;28;20376;-76
2020/12/25 04:49:08;;;;;;;16.27;3.45;;;4.90;99.90;;;;;;2121758;28;20043;-77
2020/12/25 04:50:09;;;;;;;11.45;2.30;;;4.90;99.90;;;;;;2121639;28;20090;-77
2020/12/25 04:51:10;;;;;;;9.23;2.60;;;4.90;99.90;;;;;;2121739;28;20072;-78
2020/12/25 04:52:10;;;;;;;12.25;2.70;;;4.90;99.90;;;;;;2121623;28;20015;-75
2020/12/25 04:53:11;;;;;;;7.20;2.30;;;4.90;99.90;;;;;;2121417;28;20048;-75
2020/12/25 04:54:11;;;;;;;10.45;2.70;;;4.90;99.90;;;;;;2121232;28;20019;-77
2020/12/25 04:55:12;;;;;;;5.88;2.67;;;4.90;99.90;;;;;;2112483;28;20035;-77
2020/12/25 04:56:13;;;;;;;10.10;2.47;;;4.90;99.90;;;;;;2112717;28;20020;-76
2020/12/25 04:57:13;;;;;;;10.35;2.80;;;4.80;99.90;;;;;;2121539;28;20030;-77
2020/12/25 04:58:14;;;;;;;9.68;3.17;;;4.80;99.90;;;;;;2121863;27;20015;-75
2020/12/25 04:59:14;;;;;;;18.30;4.25;;;4.80;99.90;;;;;;2113901;28;20051;-76
2020/12/25 05:00:21;;;;;;;11.20;3.75;;;4.80;99.90;;;;;;2114081;28;20015;-75
2020/12/25 05:01:22;;;;;;;9.27;2.50;;;4.80;99.90;;;;;;2123193;27;20034;-77
2020/12/25 05:02:22;;;;;;;10.52;2.45;;;4.70;99.90;;;;;;2123427;27;20031;-78
2020/12/25 05:03:23;;;;;;;9.50;3.17;;;4.70;99.90;;;;;;2122924;27;20029;-74
2020/12/25 05:04:24;;;;;;;11.88;2.30;;;4.70;99.90;;;;;;2123228;27;20038;-75
2020/12/25 05:05:28;;;;;;;8.48;2.40;;;4.70;99.90;;;;;;2123085;27;20382;-74
2020/12/25 05:06:31;;;;;;;8.15;2.65;;;4.70;99.90;;;;;;2123191;27;20023;-75
2020/12/25 05:07:33;;;;;;;14.05;2.85;;;4.70;99.90;;;;;;2123368;27;20023;-76
2020/12/25 05:08:48;;;;;;;13.57;2.78;;;4.60;99.90;;;;;;2123218;27;20080;-76
2020/12/25 05:09:54;;;;;;;13.20;3.38;;;4.60;99.90;;;;;;2114251;28;20024;-77
2020/12/25 05:10:54;;;;;;;11.50;3.42;;;4.60;99.90;;;;;;2113584;27;20084;-76
2020/12/25 05:11:57;;;;;;;9.35;2.65;;;4.60;99.90;;;;;;2123356;27;20047;-77
2020/12/25 05:12:57;;;;;;;6.18;2.75;;;4.60;99.90;;;;;;2122923;27;20026;-77
2020/12/25 05:13:58;;;;;;;11.27;2.80;;;4.60;99.90;;;;;;2114073;28;20034;-75
2020/12/25 05:15:03;;;;;;;9.73;2.35;;;4.60;99.90;;;;;;2114181;28;20080;-77
2020/12/25 05:16:03;;;;;;;8.68;2.60;;;4.60;99.90;;;;;;2123212;27;20019;-76
2020/12/25 05:17:10;;;;;;;10.50;3.13;;;4.60;99.90;;;;;;2122925;27;20618;-76
2020/12/25 05:18:11;;;;;;;6.38;2.33;;;4.60;99.90;;;;;;2123310;27;20067;-77
2020/12/25 05:19:13;;;;;;;10.07;2.70;;;4.60;99.90;;;;;;2123143;27;20379;-76
2020/12/25 05:20:14;;;;;;;8.63;2.70;;;4.60;99.90;;;;;;2113745;28;20024;-75
2020/12/25 05:21:16;;;;;;;6.63;3.00;;;4.60;99.90;;;;;;2097138;28;20020;-77